sensor_id;sensor_type;location;lat;lon;timestamp;P1;durP1;ratioP1;P2;durP2;ratioP2
56161;SDS011;42045;52.986;6.014;2023-05-07T00:01:15;20.48;;;18.40;;
56161;SDS011;42045;52.986;6.014;2023-05-07T00:03:41;22.63;;;19.17;;
56161;SDS011;42045;52.986;6.014;2023-05-07T00:06:06;20.35;;;18.15;;
56161;SDS011;42045;52.986;6.014;2023-05-07T00:08:32;21.02;;;18.75;;
56161;SDS011;42045;52.986;6.014;2023-05-07T00:10:58;19.75;;;17.25;;
56161;SDS011;42045;52.986;6.014;2023-05-07T00:13:23;23.67;;;20.10;;
56161;SDS011;42045;52.986;6.014;2023-05-07T00:15:49;26.13;;;20.88;;
56161;SDS011;42045;52.986;6.014;2023-05-07T00:18:15;21.52;;;19.27;;
56161;SDS011;42045;52.986;6.014;2023-05-07T00:20:41;20.48;;;18.30;;
56161;SDS011;42045;52.986;6.014;2023-05-07T00:23:06;22.58;;;18.85;;
56161;SDS011;42045;52.986;6.014;2023-05-07T00:25:32;20.70;;;18.50;;
56161;SDS011;42045;52.986;6.014;2023-05-07T00:27:57;25.17;;;20.35;;
56161;SDS011;42045;52.986;6.014;2023-05-07T00:30:28;21.13;;;18.92;;
56161;SDS011;42045;52.986;6.014;2023-05-07T00:32:54;21.40;;;19.13;;
56161;SDS011;42045;52.986;6.014;2023-05-07T00:35:19;21.67;;;19.33;;
56161;SDS011;42045;52.986;6.014;2023-05-07T00:37:45;24.08;;;19.55;;
56161;SDS011;42045;52.986;6.014;2023-05-07T00:40:11;20.95;;;18.70;;
56161;SDS011;42045;52.986;6.014;2023-05-07T00:42:36;23.83;;;19.73;;
56161;SDS011;42045;52.986;6.014;2023-05-07T00:45:02;26.63;;;19.20;;
56161;SDS011;42045;52.986;6.014;2023-05-07T00:47:28;20.88;;;17.98;;
56161;SDS011;42045;52.986;6.014;2023-05-07T00:49:54;19.67;;;17.65;;
56161;SDS011;42045;52.986;6.014;2023-05-07T00:52:20;21.35;;;18.55;;
56161;SDS011;42045;52.986;6.014;2023-05-07T00:54:48;20.60;;;18.45;;
56161;SDS011;42045;52.986;6.014;2023-05-07T00:57:14;19.58;;;17.58;;
56161;SDS011;42045;52.986;6.014;2023-05-07T00:59:40;22.85;;;18.65;;
56161;SDS011;42045;52.986;6.014;2023-05-07T01:02:06;19.08;;;17.05;;
56161;SDS011;42045;52.986;6.014;2023-05-07T01:04:32;21.42;;;18.35;;
56161;SDS011;42045;52.986;6.014;2023-05-07T01:06:58;20.70;;;18.40;;
56161;SDS011;42045;52.986;6.014;2023-05-07T01:09:26;20.55;;;18.27;;
56161;SDS011;42045;52.986;6.014;2023-05-07T01:11:52;23.23;;;18.92;;
56161;SDS011;42045;52.986;6.014;2023-05-07T01:14:19;22.40;;;18.20;;
56161;SDS011;42045;52.986;6.014;2023-05-07T01:16:46;18.90;;;16.98;;
56161;SDS011;42045;52.986;6.014;2023-05-07T01:19:12;20.35;;;18.27;;
56161;SDS011;42045;52.986;6.014;2023-05-07T01:21:46;19.90;;;17.92;;
56161;SDS011;42045;52.986;6.014;2023-05-07T01:24:15;19.60;;;17.23;;
56161;SDS011;42045;52.986;6.014;2023-05-07T01:26:42;20.65;;;17.83;;
56161;SDS011;42045;52.986;6.014;2023-05-07T01:29:09;21.02;;;18.77;;
56161;SDS011;42045;52.986;6.014;2023-05-07T01:31:35;20.23;;;17.90;;
56161;SDS011;42045;52.986;6.014;2023-05-07T01:34:02;21.92;;;19.20;;
56161;SDS011;42045;52.986;6.014;2023-05-07T01:36:29;19.52;;;17.10;;
56161;SDS011;42045;52.986;6.014;2023-05-07T01:38:57;19.25;;;17.33;;
56161;SDS011;42045;52.986;6.014;2023-05-07T01:41:23;21.55;;;18.60;;
56161;SDS011;42045;52.986;6.014;2023-05-07T01:43:49;19.35;;;17.27;;
56161;SDS011;42045;52.986;6.014;2023-05-07T01:46:17;20.90;;;18.10;;
56161;SDS011;42045;52.986;6.014;2023-05-07T01:48:44;22.10;;;18.83;;
56161;SDS011;42045;52.986;6.014;2023-05-07T01:51:11;20.00;;;18.00;;
56161;SDS011;42045;52.986;6.014;2023-05-07T01:53:37;22.17;;;18.52;;
56161;SDS011;42045;52.986;6.014;2023-05-07T01:56:04;21.00;;;18.90;;
56161;SDS011;42045;52.986;6.014;2023-05-07T01:58:30;21.83;;;19.52;;
56161;SDS011;42045;52.986;6.014;2023-05-07T02:00:56;21.60;;;18.30;;
56161;SDS011;42045;52.986;6.014;2023-05-07T02:03:21;23.83;;;21.35;;
56161;SDS011;42045;52.986;6.014;2023-05-07T02:05:47;23.35;;;21.05;;
56161;SDS011;42045;52.986;6.014;2023-05-07T02:08:12;24.92;;;22.33;;
56161;SDS011;42045;52.986;6.014;2023-05-07T02:10:38;25.75;;;23.02;;
56161;SDS011;42045;52.986;6.014;2023-05-07T02:13:04;24.52;;;21.92;;
56161;SDS011;42045;52.986;6.014;2023-05-07T02:15:30;28.20;;;22.50;;
56161;SDS011;42045;52.986;6.014;2023-05-07T02:17:59;27.55;;;24.50;;
56161;SDS011;42045;52.986;6.014;2023-05-07T02:20:33;25.92;;;23.23;;
56161;SDS011;42045;52.986;6.014;2023-05-07T02:22:58;26.55;;;23.75;;
56161;SDS011;42045;52.986;6.014;2023-05-07T02:25:24;29.00;;;25.92;;
56161;SDS011;42045;52.986;6.014;2023-05-07T02:27:50;27.95;;;25.13;;
56161;SDS011;42045;52.986;6.014;2023-05-07T02:30:15;31.10;;;26.65;;
56161;SDS011;42045;52.986;6.014;2023-05-07T02:32:41;29.60;;;26.42;;
56161;SDS011;42045;52.986;6.014;2023-05-07T02:35:07;29.75;;;25.92;;
56161;SDS011;42045;52.986;6.014;2023-05-07T02:37:32;30.33;;;26.40;;
56161;SDS011;42045;52.986;6.014;2023-05-07T02:39:58;36.05;;;28.33;;
56161;SDS011;42045;52.986;6.014;2023-05-07T02:42:24;30.92;;;27.63;;
56161;SDS011;42045;52.986;6.014;2023-05-07T02:44:49;32.95;;;28.90;;
56161;SDS011;42045;52.986;6.014;2023-05-07T02:47:15;30.65;;;27.63;;
56161;SDS011;42045;52.986;6.014;2023-05-07T02:49:41;31.58;;;28.30;;
56161;SDS011;42045;52.986;6.014;2023-05-07T02:52:06;31.20;;;27.92;;
56161;SDS011;42045;52.986;6.014;2023-05-07T02:54:32;31.30;;;28.00;;
56161;SDS011;42045;52.986;6.014;2023-05-07T02:56:58;32.05;;;27.23;;
56161;SDS011;42045;52.986;6.014;2023-05-07T02:59:25;31.88;;;28.52;;
56161;SDS011;42045;52.986;6.014;2023-05-07T03:01:51;34.00;;;30.48;;
56161;SDS011;42045;52.986;6.014;2023-05-07T03:04:17;33.40;;;29.20;;
56161;SDS011;42045;52.986;6.014;2023-05-07T03:06:43;32.45;;;28.92;;
56161;SDS011;42045;52.986;6.014;2023-05-07T03:09:08;32.42;;;28.92;;
56161;SDS011;42045;52.986;6.014;2023-05-07T03:11:34;32.88;;;28.98;;
56161;SDS011;42045;52.986;6.014;2023-05-07T03:14:00;35.55;;;30.00;;
56161;SDS011;42045;52.986;6.014;2023-05-07T03:16:26;33.65;;;29.10;;
56161;SDS011;42045;52.986;6.014;2023-05-07T03:18:52;35.95;;;32.13;;
56161;SDS011;42045;52.986;6.014;2023-05-07T03:21:18;34.42;;;30.90;;
56161;SDS011;42045;52.986;6.014;2023-05-07T03:23:44;33.83;;;30.27;;
56161;SDS011;42045;52.986;6.014;2023-05-07T03:26:09;37.05;;;32.00;;
56161;SDS011;42045;52.986;6.014;2023-05-07T03:28:36;34.40;;;30.77;;
56161;SDS011;42045;52.986;6.014;2023-05-07T03:31:02;35.42;;;30.80;;
56161;SDS011;42045;52.986;6.014;2023-05-07T03:33:27;38.25;;;32.10;;
56161;SDS011;42045;52.986;6.014;2023-05-07T03:35:53;35.35;;;31.40;;
56161;SDS011;42045;52.986;6.014;2023-05-07T03:38:19;36.92;;;30.70;;
56161;SDS011;42045;52.986;6.014;2023-05-07T03:40:44;36.72;;;31.65;;
56161;SDS011;42045;52.986;6.014;2023-05-07T03:43:10;36.58;;;32.53;;
56161;SDS011;42045;52.986;6.014;2023-05-07T03:45:36;37.00;;;32.78;;
56161;SDS011;42045;52.986;6.014;2023-05-07T03:48:01;35.85;;;31.90;;
56161;SDS011;42045;52.986;6.014;2023-05-07T03:50:27;36.95;;;32.95;;
56161;SDS011;42045;52.986;6.014;2023-05-07T03:52:53;36.72;;;32.13;;
56161;SDS011;42045;52.986;6.014;2023-05-07T03:55:18;36.25;;;32.05;;
56161;SDS011;42045;52.986;6.014;2023-05-07T03:57:44;40.28;;;33.80;;
56161;SDS011;42045;52.986;6.014;2023-05-07T04:00:10;36.13;;;32.22;;
56161;SDS011;42045;52.986;6.014;2023-05-07T04:02:36;37.63;;;33.53;;
56161;SDS011;42045;52.986;6.014;2023-05-07T04:05:02;41.33;;;34.88;;
56161;SDS011;42045;52.986;6.014;2023-05-07T04:07:28;39.08;;;34.78;;
56161;SDS011;42045;52.986;6.014;2023-05-07T04:09:53;40.80;;;36.42;;
56161;SDS011;42045;52.986;6.014;2023-05-07T04:12:19;39.63;;;34.70;;
56161;SDS011;42045;52.986;6.014;2023-05-07T04:14:45;39.85;;;34.00;;
56161;SDS011;42045;52.986;6.014;2023-05-07T04:17:10;38.95;;;33.88;;
56161;SDS011;42045;52.986;6.014;2023-05-07T04:19:36;41.95;;;34.47;;
56161;SDS011;42045;52.986;6.014;2023-05-07T04:22:02;42.88;;;35.50;;
56161;SDS011;42045;52.986;6.014;2023-05-07T04:24:28;40.40;;;35.13;;
56161;SDS011;42045;52.986;6.014;2023-05-07T04:26:57;42.38;;;35.72;;
56161;SDS011;42045;52.986;6.014;2023-05-07T04:29:23;41.35;;;36.25;;
56161;SDS011;42045;52.986;6.014;2023-05-07T04:31:49;44.33;;;36.90;;
56161;SDS011;42045;52.986;6.014;2023-05-07T04:34:15;40.65;;;35.47;;
56161;SDS011;42045;52.986;6.014;2023-05-07T04:36:41;41.75;;;36.05;;
56161;SDS011;42045;52.986;6.014;2023-05-07T04:39:07;39.63;;;35.08;;
56161;SDS011;42045;52.986;6.014;2023-05-07T04:41:33;42.20;;;36.88;;
56161;SDS011;42045;52.986;6.014;2023-05-07T04:44:01;41.28;;;35.38;;
56161;SDS011;42045;52.986;6.014;2023-05-07T04:46:29;43.88;;;38.20;;
56161;SDS011;42045;52.986;6.014;2023-05-07T04:48:55;45.95;;;37.38;;
56161;SDS011;42045;52.986;6.014;2023-05-07T04:51:21;47.13;;;38.80;;
56161;SDS011;42045;52.986;6.014;2023-05-07T04:53:47;43.13;;;37.13;;
56161;SDS011;42045;52.986;6.014;2023-05-07T04:56:12;43.75;;;37.60;;
56161;SDS011;42045;52.986;6.014;2023-05-07T04:58:38;47.38;;;38.17;;
56161;SDS011;42045;52.986;6.014;2023-05-07T05:01:04;44.63;;;38.03;;
56161;SDS011;42045;52.986;6.014;2023-05-07T05:03:30;43.45;;;37.50;;
56161;SDS011;42045;52.986;6.014;2023-05-07T05:05:55;49.97;;;40.95;;
56161;SDS011;42045;52.986;6.014;2023-05-07T05:08:24;45.83;;;40.33;;
56161;SDS011;42045;52.986;6.014;2023-05-07T05:10:50;46.10;;;38.15;;
56161;SDS011;42045;52.986;6.014;2023-05-07T05:13:16;49.40;;;41.83;;
56161;SDS011;42045;52.986;6.014;2023-05-07T05:15:42;47.17;;;38.58;;
56161;SDS011;42045;52.986;6.014;2023-05-07T05:18:07;47.13;;;40.38;;
56161;SDS011;42045;52.986;6.014;2023-05-07T05:20:33;47.70;;;39.45;;
56161;SDS011;42045;52.986;6.014;2023-05-07T05:22:58;47.42;;;39.20;;
56161;SDS011;42045;52.986;6.014;2023-05-07T05:25:24;47.10;;;38.35;;
56161;SDS011;42045;52.986;6.014;2023-05-07T05:27:50;44.17;;;39.10;;
56161;SDS011;42045;52.986;6.014;2023-05-07T05:30:16;42.55;;;37.75;;
56161;SDS011;42045;52.986;6.014;2023-05-07T05:32:41;49.13;;;40.40;;
56161;SDS011;42045;52.986;6.014;2023-05-07T05:35:07;45.67;;;40.15;;
56161;SDS011;42045;52.986;6.014;2023-05-07T05:37:33;48.83;;;39.65;;
56161;SDS011;42045;52.986;6.014;2023-05-07T05:39:59;52.25;;;40.42;;
56161;SDS011;42045;52.986;6.014;2023-05-07T05:42:24;45.45;;;37.88;;
56161;SDS011;42045;52.986;6.014;2023-05-07T05:44:50;48.92;;;40.75;;
56161;SDS011;42045;52.986;6.014;2023-05-07T05:47:15;50.72;;;39.50;;
56161;SDS011;42045;52.986;6.014;2023-05-07T05:49:41;48.17;;;39.85;;
56161;SDS011;42045;52.986;6.014;2023-05-07T05:52:08;43.70;;;36.90;;
56161;SDS011;42045;52.986;6.014;2023-05-07T05:54:34;44.90;;;38.30;;
56161;SDS011;42045;52.986;6.014;2023-05-07T05:57:00;43.30;;;38.47;;
56161;SDS011;42045;52.986;6.014;2023-05-07T05:59:29;42.40;;;37.80;;
56161;SDS011;42045;52.986;6.014;2023-05-07T06:01:54;45.42;;;38.67;;
56161;SDS011;42045;52.986;6.014;2023-05-07T06:04:20;43.20;;;36.83;;
56161;SDS011;42045;52.986;6.014;2023-05-07T06:06:46;43.35;;;38.28;;
56161;SDS011;42045;52.986;6.014;2023-05-07T06:09:11;41.00;;;36.58;;
56161;SDS011;42045;52.986;6.014;2023-05-07T06:11:37;41.47;;;35.75;;
56161;SDS011;42045;52.986;6.014;2023-05-07T06:14:03;41.97;;;36.60;;
56161;SDS011;42045;52.986;6.014;2023-05-07T06:16:28;40.10;;;35.47;;
56161;SDS011;42045;52.986;6.014;2023-05-07T06:18:54;42.22;;;37.28;;
56161;SDS011;42045;52.986;6.014;2023-05-07T06:21:19;40.03;;;35.72;;
56161;SDS011;42045;52.986;6.014;2023-05-07T06:23:45;40.97;;;36.53;;
56161;SDS011;42045;52.986;6.014;2023-05-07T06:26:11;40.95;;;36.47;;
56161;SDS011;42045;52.986;6.014;2023-05-07T06:28:36;38.67;;;33.33;;
56161;SDS011;42045;52.986;6.014;2023-05-07T06:31:12;36.13;;;32.10;;
56161;SDS011;42045;52.986;6.014;2023-05-07T06:33:37;36.13;;;31.33;;
56161;SDS011;42045;52.986;6.014;2023-05-07T06:36:04;35.58;;;31.65;;
56161;SDS011;42045;52.986;6.014;2023-05-07T06:38:30;34.92;;;31.40;;
56161;SDS011;42045;52.986;6.014;2023-05-07T06:40:55;33.30;;;29.80;;
56161;SDS011;42045;52.986;6.014;2023-05-07T06:43:22;33.97;;;30.55;;
56161;SDS011;42045;52.986;6.014;2023-05-07T06:45:48;33.72;;;30.33;;
56161;SDS011;42045;52.986;6.014;2023-05-07T06:48:13;34.47;;;30.98;;
56161;SDS011;42045;52.986;6.014;2023-05-07T06:50:39;35.45;;;31.95;;
56161;SDS011;42045;52.986;6.014;2023-05-07T06:53:05;32.00;;;28.65;;
56161;SDS011;42045;52.986;6.014;2023-05-07T06:55:30;30.60;;;27.40;;
56161;SDS011;42045;52.986;6.014;2023-05-07T06:57:56;31.88;;;28.63;;
56161;SDS011;42045;52.986;6.014;2023-05-07T07:00:25;29.45;;;26.23;;
56161;SDS011;42045;52.986;6.014;2023-05-07T07:02:55;30.48;;;27.45;;
56161;SDS011;42045;52.986;6.014;2023-05-07T07:05:21;30.63;;;27.48;;
56161;SDS011;42045;52.986;6.014;2023-05-07T07:07:47;29.15;;;26.38;;
56161;SDS011;42045;52.986;6.014;2023-05-07T07:10:20;28.60;;;25.70;;
56161;SDS011;42045;52.986;6.014;2023-05-07T07:12:47;30.42;;;27.30;;
56161;SDS011;42045;52.986;6.014;2023-05-07T07:15:13;28.45;;;25.60;;
56161;SDS011;42045;52.986;6.014;2023-05-07T07:17:39;30.27;;;27.00;;
56161;SDS011;42045;52.986;6.014;2023-05-07T07:20:05;29.98;;;26.95;;
56161;SDS011;42045;52.986;6.014;2023-05-07T07:22:32;28.55;;;25.77;;
56161;SDS011;42045;52.986;6.014;2023-05-07T07:24:57;30.38;;;27.45;;
56161;SDS011;42045;52.986;6.014;2023-05-07T07:27:23;29.80;;;26.60;;
56161;SDS011;42045;52.986;6.014;2023-05-07T07:29:49;31.13;;;27.80;;
56161;SDS011;42045;52.986;6.014;2023-05-07T07:32:14;29.48;;;26.63;;
56161;SDS011;42045;52.986;6.014;2023-05-07T07:34:40;29.33;;;26.48;;
56161;SDS011;42045;52.986;6.014;2023-05-07T07:37:06;30.63;;;27.63;;
56161;SDS011;42045;52.986;6.014;2023-05-07T07:39:32;30.10;;;27.00;;
56161;SDS011;42045;52.986;6.014;2023-05-07T07:41:58;31.77;;;28.42;;
56161;SDS011;42045;52.986;6.014;2023-05-07T07:44:24;29.77;;;26.88;;
56161;SDS011;42045;52.986;6.014;2023-05-07T07:46:50;31.10;;;27.98;;
56161;SDS011;42045;52.986;6.014;2023-05-07T07:49:15;30.48;;;27.33;;
56161;SDS011;42045;52.986;6.014;2023-05-07T07:51:41;28.67;;;25.80;;
56161;SDS011;42045;52.986;6.014;2023-05-07T07:54:07;30.23;;;27.23;;
56161;SDS011;42045;52.986;6.014;2023-05-07T07:56:33;29.02;;;25.83;;
56161;SDS011;42045;52.986;6.014;2023-05-07T07:58:59;28.23;;;25.60;;
56161;SDS011;42045;52.986;6.014;2023-05-07T08:01:25;26.83;;;24.05;;
56161;SDS011;42045;52.986;6.014;2023-05-07T08:03:51;28.70;;;25.83;;
56161;SDS011;42045;52.986;6.014;2023-05-07T08:06:17;28.17;;;25.42;;
56161;SDS011;42045;52.986;6.014;2023-05-07T08:08:43;29.65;;;26.50;;
56161;SDS011;42045;52.986;6.014;2023-05-07T08:11:09;30.08;;;26.85;;
56161;SDS011;42045;52.986;6.014;2023-05-07T08:13:35;29.52;;;26.52;;
56161;SDS011;42045;52.986;6.014;2023-05-07T08:16:02;29.05;;;26.08;;
56161;SDS011;42045;52.986;6.014;2023-05-07T08:18:28;29.90;;;26.85;;
56161;SDS011;42045;52.986;6.014;2023-05-07T08:20:54;29.17;;;26.27;;
56161;SDS011;42045;52.986;6.014;2023-05-07T08:23:20;29.02;;;26.23;;
56161;SDS011;42045;52.986;6.014;2023-05-07T08:25:46;28.25;;;25.30;;
56161;SDS011;42045;52.986;6.014;2023-05-07T08:28:12;30.05;;;27.17;;
56161;SDS011;42045;52.986;6.014;2023-05-07T08:30:37;29.80;;;26.65;;
56161;SDS011;42045;52.986;6.014;2023-05-07T08:33:03;30.17;;;27.27;;
56161;SDS011;42045;52.986;6.014;2023-05-07T08:35:29;29.80;;;26.70;;
56161;SDS011;42045;52.986;6.014;2023-05-07T08:37:55;30.95;;;27.80;;
56161;SDS011;42045;52.986;6.014;2023-05-07T08:40:21;28.92;;;26.05;;
56161;SDS011;42045;52.986;6.014;2023-05-07T08:42:51;30.50;;;27.48;;
56161;SDS011;42045;52.986;6.014;2023-05-07T08:45:18;29.15;;;26.15;;
56161;SDS011;42045;52.986;6.014;2023-05-07T08:47:51;29.42;;;26.60;;
56161;SDS011;42045;52.986;6.014;2023-05-07T08:50:20;29.30;;;26.50;;
56161;SDS011;42045;52.986;6.014;2023-05-07T08:52:47;29.58;;;26.58;;
56161;SDS011;42045;52.986;6.014;2023-05-07T08:55:13;30.67;;;27.58;;
56161;SDS011;42045;52.986;6.014;2023-05-07T08:57:40;30.25;;;27.05;;
56161;SDS011;42045;52.986;6.014;2023-05-07T09:00:06;31.45;;;28.35;;
56161;SDS011;42045;52.986;6.014;2023-05-07T09:02:32;30.90;;;27.63;;
56161;SDS011;42045;52.986;6.014;2023-05-07T09:04:59;29.42;;;26.73;;
56161;SDS011;42045;52.986;6.014;2023-05-07T09:07:25;29.98;;;27.15;;
56161;SDS011;42045;52.986;6.014;2023-05-07T09:09:51;30.23;;;27.13;;
56161;SDS011;42045;52.986;6.014;2023-05-07T09:12:18;30.35;;;27.52;;
56161;SDS011;42045;52.986;6.014;2023-05-07T09:14:44;32.15;;;29.00;;
56161;SDS011;42045;52.986;6.014;2023-05-07T09:17:11;32.00;;;28.90;;
56161;SDS011;42045;52.986;6.014;2023-05-07T09:19:36;32.28;;;28.92;;
56161;SDS011;42045;52.986;6.014;2023-05-07T09:22:03;31.63;;;28.40;;
56161;SDS011;42045;52.986;6.014;2023-05-07T09:24:32;31.75;;;28.63;;
56161;SDS011;42045;52.986;6.014;2023-05-07T09:27:03;33.30;;;30.15;;
56161;SDS011;42045;52.986;6.014;2023-05-07T09:29:33;32.50;;;29.40;;
56161;SDS011;42045;52.986;6.014;2023-05-07T09:32:03;34.65;;;31.23;;
56161;SDS011;42045;52.986;6.014;2023-05-07T09:34:30;31.92;;;28.80;;
56161;SDS011;42045;52.986;6.014;2023-05-07T09:36:56;29.73;;;26.75;;
56161;SDS011;42045;52.986;6.014;2023-05-07T09:39:23;28.27;;;25.25;;
56161;SDS011;42045;52.986;6.014;2023-05-07T09:41:50;31.48;;;28.30;;
56161;SDS011;42045;52.986;6.014;2023-05-07T09:44:17;33.17;;;29.60;;
56161;SDS011;42045;52.986;6.014;2023-05-07T09:46:44;34.30;;;30.75;;
56161;SDS011;42045;52.986;6.014;2023-05-07T09:49:12;32.28;;;29.08;;
56161;SDS011;42045;52.986;6.014;2023-05-07T09:51:49;32.28;;;28.95;;
56161;SDS011;42045;52.986;6.014;2023-05-07T09:54:16;31.95;;;29.02;;
56161;SDS011;42045;52.986;6.014;2023-05-07T09:56:44;32.50;;;29.40;;
56161;SDS011;42045;52.986;6.014;2023-05-07T09:59:11;31.40;;;28.38;;
56161;SDS011;42045;52.986;6.014;2023-05-07T10:01:38;32.17;;;28.98;;
56161;SDS011;42045;52.986;6.014;2023-05-07T10:04:09;32.33;;;29.25;;
56161;SDS011;42045;52.986;6.014;2023-05-07T10:06:35;32.05;;;28.90;;
56161;SDS011;42045;52.986;6.014;2023-05-07T10:09:05;32.08;;;28.85;;
56161;SDS011;42045;52.986;6.014;2023-05-07T10:11:32;33.00;;;29.77;;
56161;SDS011;42045;52.986;6.014;2023-05-07T10:13:59;30.92;;;27.83;;
56161;SDS011;42045;52.986;6.014;2023-05-07T10:16:27;31.02;;;28.17;;
56161;SDS011;42045;52.986;6.014;2023-05-07T10:18:58;31.95;;;28.85;;
56161;SDS011;42045;52.986;6.014;2023-05-07T10:21:24;31.60;;;28.40;;
56161;SDS011;42045;52.986;6.014;2023-05-07T10:23:59;32.08;;;28.90;;
56161;SDS011;42045;52.986;6.014;2023-05-07T10:26:31;31.75;;;28.52;;
56161;SDS011;42045;52.986;6.014;2023-05-07T10:28:59;31.88;;;28.88;;
56161;SDS011;42045;52.986;6.014;2023-05-07T10:34:38;32.50;;;29.25;;
56161;SDS011;42045;52.986;6.014;2023-05-07T10:37:06;34.22;;;30.70;;
56161;SDS011;42045;52.986;6.014;2023-05-07T10:39:33;31.17;;;28.40;;
56161;SDS011;42045;52.986;6.014;2023-05-07T10:42:09;30.52;;;27.73;;
56161;SDS011;42045;52.986;6.014;2023-05-07T10:44:36;30.48;;;27.48;;
56161;SDS011;42045;52.986;6.014;2023-05-07T10:49:36;31.40;;;28.20;;
56161;SDS011;42045;52.986;6.014;2023-05-07T10:52:22;32.45;;;29.25;;
56161;SDS011;42045;52.986;6.014;2023-05-07T10:57:50;31.33;;;28.20;;
56161;SDS011;42045;52.986;6.014;2023-05-07T11:05:25;31.05;;;28.10;;
56161;SDS011;42045;52.986;6.014;2023-05-07T11:07:56;32.33;;;29.33;;
56161;SDS011;42045;52.986;6.014;2023-05-07T11:13:14;34.28;;;30.98;;
56161;SDS011;42045;52.986;6.014;2023-05-07T11:15:41;33.25;;;30.05;;
56161;SDS011;42045;52.986;6.014;2023-05-07T11:18:09;33.80;;;30.45;;
56161;SDS011;42045;52.986;6.014;2023-05-07T11:20:46;33.22;;;29.75;;
56161;SDS011;42045;52.986;6.014;2023-05-07T11:23:54;31.25;;;28.05;;
56161;SDS011;42045;52.986;6.014;2023-05-07T11:26:09;31.63;;;28.35;;
56161;SDS011;42045;52.986;6.014;2023-05-07T11:28:39;31.08;;;28.17;;
56161;SDS011;42045;52.986;6.014;2023-05-07T11:31:06;31.75;;;28.75;;
56161;SDS011;42045;52.986;6.014;2023-05-07T11:33:33;31.92;;;28.67;;
56161;SDS011;42045;52.986;6.014;2023-05-07T11:35:59;30.60;;;27.60;;
56161;SDS011;42045;52.986;6.014;2023-05-07T11:38:28;31.25;;;28.25;;
56161;SDS011;42045;52.986;6.014;2023-05-07T11:40:55;29.67;;;26.83;;
56161;SDS011;42045;52.986;6.014;2023-05-07T11:43:21;29.58;;;26.60;;
56161;SDS011;42045;52.986;6.014;2023-05-07T11:45:47;29.85;;;26.70;;
56161;SDS011;42045;52.986;6.014;2023-05-07T11:48:14;28.77;;;26.05;;
56161;SDS011;42045;52.986;6.014;2023-05-07T11:50:53;32.38;;;29.42;;
56161;SDS011;42045;52.986;6.014;2023-05-07T11:53:25;31.80;;;28.60;;
56161;SDS011;42045;52.986;6.014;2023-05-07T11:55:52;30.77;;;27.85;;
56161;SDS011;42045;52.986;6.014;2023-05-07T11:58:20;28.77;;;25.92;;
56161;SDS011;42045;52.986;6.014;2023-05-07T12:00:53;31.17;;;28.10;;
56161;SDS011;42045;52.986;6.014;2023-05-07T12:03:20;33.33;;;29.23;;
56161;SDS011;42045;52.986;6.014;2023-05-07T12:05:46;30.38;;;27.42;;
56161;SDS011;42045;52.986;6.014;2023-05-07T12:08:16;30.45;;;27.25;;
56161;SDS011;42045;52.986;6.014;2023-05-07T12:10:42;31.00;;;27.77;;
56161;SDS011;42045;52.986;6.014;2023-05-07T12:13:15;28.05;;;25.42;;
56161;SDS011;42045;52.986;6.014;2023-05-07T12:15:42;27.40;;;24.73;;
56161;SDS011;42045;52.986;6.014;2023-05-07T12:18:08;26.73;;;24.10;;
56161;SDS011;42045;52.986;6.014;2023-05-07T12:20:35;27.38;;;24.63;;
56161;SDS011;42045;52.986;6.014;2023-05-07T12:23:02;26.40;;;23.77;;
56161;SDS011;42045;52.986;6.014;2023-05-07T12:25:31;26.70;;;24.20;;
56161;SDS011;42045;52.986;6.014;2023-05-07T12:28:00;26.63;;;24.17;;
56161;SDS011;42045;52.986;6.014;2023-05-07T12:30:26;27.70;;;25.20;;
56161;SDS011;42045;52.986;6.014;2023-05-07T12:32:53;27.77;;;25.08;;
56161;SDS011;42045;52.986;6.014;2023-05-07T12:35:26;25.65;;;23.25;;
56161;SDS011;42045;52.986;6.014;2023-05-07T12:37:55;25.08;;;22.88;;
56161;SDS011;42045;52.986;6.014;2023-05-07T12:40:21;24.08;;;21.88;;
56161;SDS011;42045;52.986;6.014;2023-05-07T12:42:47;22.92;;;20.85;;
56161;SDS011;42045;52.986;6.014;2023-05-07T12:45:21;22.25;;;20.17;;
56161;SDS011;42045;52.986;6.014;2023-05-07T12:47:47;21.92;;;19.77;;
56161;SDS011;42045;52.986;6.014;2023-05-07T12:50:13;22.02;;;19.83;;
56161;SDS011;42045;52.986;6.014;2023-05-07T12:52:39;21.77;;;18.63;;
56161;SDS011;42045;52.986;6.014;2023-05-07T12:55:05;20.63;;;18.63;;
56161;SDS011;42045;52.986;6.014;2023-05-07T12:57:42;19.58;;;17.58;;
56161;SDS011;42045;52.986;6.014;2023-05-07T13:00:10;20.90;;;19.00;;
56161;SDS011;42045;52.986;6.014;2023-05-07T13:02:40;22.60;;;20.20;;
56161;SDS011;42045;52.986;6.014;2023-05-07T13:05:09;21.85;;;19.85;;
56161;SDS011;42045;52.986;6.014;2023-05-07T13:07:35;21.75;;;19.75;;
56161;SDS011;42045;52.986;6.014;2023-05-07T13:10:02;22.42;;;20.25;;
56161;SDS011;42045;52.986;6.014;2023-05-07T13:12:28;21.55;;;19.65;;
56161;SDS011;42045;52.986;6.014;2023-05-07T13:14:54;21.90;;;19.90;;
56161;SDS011;42045;52.986;6.014;2023-05-07T13:17:19;21.73;;;19.73;;
56161;SDS011;42045;52.986;6.014;2023-05-07T13:19:45;22.90;;;20.48;;
56161;SDS011;42045;52.986;6.014;2023-05-07T13:22:11;21.45;;;19.30;;
56161;SDS011;42045;52.986;6.014;2023-05-07T13:24:36;21.15;;;19.25;;
56161;SDS011;42045;52.986;6.014;2023-05-07T13:27:02;22.55;;;20.45;;
56161;SDS011;42045;52.986;6.014;2023-05-07T13:29:28;23.25;;;21.10;;
56161;SDS011;42045;52.986;6.014;2023-05-07T13:31:56;23.50;;;21.40;;
56161;SDS011;42045;52.986;6.014;2023-05-07T13:34:22;23.90;;;21.80;;
56161;SDS011;42045;52.986;6.014;2023-05-07T13:36:47;22.38;;;20.35;;
56161;SDS011;42045;52.986;6.014;2023-05-07T13:39:13;22.85;;;20.67;;
56161;SDS011;42045;52.986;6.014;2023-05-07T13:41:39;22.85;;;20.65;;
56161;SDS011;42045;52.986;6.014;2023-05-07T13:44:04;23.00;;;20.85;;
56161;SDS011;42045;52.986;6.014;2023-05-07T13:46:30;22.17;;;20.02;;
56161;SDS011;42045;52.986;6.014;2023-05-07T13:48:56;23.67;;;21.55;;
56161;SDS011;42045;52.986;6.014;2023-05-07T13:51:22;24.98;;;22.77;;
56161;SDS011;42045;52.986;6.014;2023-05-07T13:53:48;25.00;;;22.70;;
56161;SDS011;42045;52.986;6.014;2023-05-07T13:56:14;25.83;;;23.30;;
56161;SDS011;42045;52.986;6.014;2023-05-07T13:58:40;27.27;;;24.60;;
56161;SDS011;42045;52.986;6.014;2023-05-07T14:03:57;26.40;;;23.85;;
56161;SDS011;42045;52.986;6.014;2023-05-07T14:06:24;25.58;;;23.27;;
56161;SDS011;42045;52.986;6.014;2023-05-07T14:08:50;28.73;;;26.02;;
56161;SDS011;42045;52.986;6.014;2023-05-07T14:11:16;26.55;;;24.08;;
56161;SDS011;42045;52.986;6.014;2023-05-07T14:13:41;25.95;;;23.45;;
56161;SDS011;42045;52.986;6.014;2023-05-07T14:16:07;27.40;;;24.80;;
56161;SDS011;42045;52.986;6.014;2023-05-07T14:18:33;24.63;;;22.33;;
56161;SDS011;42045;52.986;6.014;2023-05-07T14:20:59;24.33;;;22.02;;
56161;SDS011;42045;52.986;6.014;2023-05-07T14:23:25;25.55;;;23.20;;
56161;SDS011;42045;52.986;6.014;2023-05-07T14:25:52;23.52;;;21.42;;
56161;SDS011;42045;52.986;6.014;2023-05-07T14:28:18;23.50;;;20.60;;
56161;SDS011;42045;52.986;6.014;2023-05-07T14:30:44;21.05;;;19.05;;
56161;SDS011;42045;52.986;6.014;2023-05-07T14:33:10;20.88;;;18.67;;
56161;SDS011;42045;52.986;6.014;2023-05-07T14:35:36;18.73;;;17.10;;
56161;SDS011;42045;52.986;6.014;2023-05-07T14:38:02;19.65;;;17.58;;